Time;durP1;ratioP1;P1;durP2;ratioP2;P2;SDS_P1;SDS_P2;PMS_P1;PMS_P2;Temp;Humidity;BMP_temperature;BMP_pressure;BME280_temperature;BME280_humidity;BME280_pressure;Samples;Min_cycle;Max_cycle;Signal;HPM_P1;HPM_P2
2023/03/19 00:00:12;;;;;;;3.50;2.00;;;;;;;10.07;96.61;100962.97;4950299;29;20589;-75
2023/03/19 00:02:37;;;;;;;6.03;1.70;;;;;;;10.08;96.21;100966.56;4964936;28;20133;-76
2023/03/19 00:05:04;;;;;;;1.90;1.40;;;;;;;10.09;95.62;100969.16;4955840;28;20065;-74
2023/03/19 00:07:30;;;;;;;3.63;1.67;;;;;;;10.05;96.04;100977.63;4953803;29;20039;-75
2023/03/19 00:09:55;;;;;;;2.30;1.52;;;;;;;10.04;95.98;100967.75;4953420;28;20038;-76
2023/03/19 00:12:21;;;;;;;2.83;1.83;;;;;;;10.04;96.64;100960.44;4951527;28;20142;-75
2023/03/19 00:14:46;;;;;;;3.33;1.95;;;;;;;10.04;96.68;100957.72;4953306;28;20042;-76
2023/03/19 00:17:11;;;;;;;2.75;1.90;;;;;;;10.03;97.16;100963.28;4949710;29;20043;-75
2023/03/19 00:19:37;;;;;;;2.33;1.60;;;;;;;10.00;97.54;100963.47;4952130;29;20050;-76
2023/03/19 00:22:03;;;;;;;2.42;1.85;;;;;;;10.01;96.82;100970.66;4951864;29;20075;-75
2023/03/19 00:24:29;;;;;;;2.28;1.52;;;;;;;9.98;96.46;100971.75;4953568;28;20035;-76
2023/03/19 00:26:54;;;;;;;2.05;1.85;;;;;;;9.96;97.48;100965.53;4935530;29;20034;-75
2023/03/19 00:29:20;;;;;;;2.90;1.70;;;;;;;9.94;97.09;100975.66;4951902;29;20127;-76
2023/03/19 00:31:46;;;;;;;3.08;1.60;;;;;;;9.92;97.16;100973.00;4952575;28;20028;-76
2023/03/19 00:34:12;;;;;;;3.10;2.00;;;;;;;9.94;96.49;100981.09;4951810;29;20102;-76
2023/03/19 00:36:38;;;;;;;2.60;1.70;;;;;;;9.92;97.41;100981.16;4952891;29;20057;-75
2023/03/19 00:39:04;;;;;;;2.10;1.65;;;;;;;9.90;97.99;100977.69;4952645;28;20038;-76
2023/03/19 00:41:31;;;;;;;3.17;2.03;;;;;;;9.89;96.98;100977.81;4952863;29;20031;-76
2023/03/19 00:43:57;;;;;;;2.97;1.83;;;;;;;9.89;97.77;100977.81;4940112;29;20023;-75
2023/03/19 00:46:24;;;;;;;2.33;1.75;;;;;;;9.90;97.63;100982.25;4950697;28;20490;-75
2023/03/19 00:48:52;;;;;;;3.10;1.60;;;;;;;9.86;97.56;100978.00;4952331;29;20051;-75
2023/03/19 00:51:18;;;;;;;2.42;1.80;;;;;;;9.85;97.23;100976.28;4951397;29;20039;-75
2023/03/19 00:53:43;;;;;;;3.13;2.42;;;;;;;9.86;97.67;100980.72;4951176;28;20039;-75
2023/03/19 00:56:11;;;;;;;3.20;2.03;;;;;;;9.86;98.38;100981.59;4952555;29;20047;-75
2023/03/19 00:58:37;;;;;;;4.38;2.17;;;;;;;9.81;98.38;100972.00;4951284;28;20514;-75
2023/03/19 01:01:04;;;;;;;3.08;1.90;;;;;;;9.84;97.64;100985.38;4934059;29;20058;-75
2023/03/19 01:03:29;;;;;;;3.33;2.10;;;;;;;9.84;98.47;100982.66;4952757;28;20407;-75
2023/03/19 01:05:56;;;;;;;2.88;2.30;;;;;;;9.82;98.89;100984.63;4950685;28;20119;-74
2023/03/19 01:08:22;;;;;;;5.25;2.38;;;;;;;9.77;97.99;100982.19;4950679;28;20027;-75
2023/03/19 01:10:47;;;;;;;6.07;3.05;;;;;;;9.79;97.75;100987.53;4919283;29;20403;-75
2023/03/19 01:13:13;;;;;;;3.60;2.20;;;;;;;9.74;98.42;100979.69;4935074;29;20448;-75
2023/03/19 01:15:41;;;;;;;3.67;2.83;;;;;;;9.75;99.24;100978.72;4934734;28;20066;-76
2023/03/19 01:18:07;;;;;;;2.80;2.03;;;;;;;9.75;98.05;100989.59;4951989;28;20054;-75
2023/03/19 01:20:38;;;;;;;3.63;2.50;;;;;;;9.74;99.16;100978.81;4952337;29;20126;-75
2023/03/19 01:23:05;;;;;;;3.60;2.47;;;;;;;9.74;99.05;100985.13;4934674;28;20062;-76
2023/03/19 01:25:31;;;;;;;5.25;2.65;;;;;;;9.74;98.65;100982.41;4951209;29;20479;-75
2023/03/19 01:28:02;;;;;;;4.97;3.03;;;;;;;9.69;98.94;100980.00;4950958;28;20459;-75
2023/03/19 01:30:27;;;;;;;3.50;2.83;;;;;;;9.76;99.13;100982.31;4949710;29;20035;-74
2023/03/19 01:33:11;;;;;;;3.85;2.15;;;;;;;9.74;99.41;100976.97;4951243;29;20113;-75
2023/03/19 01:35:58;;;;;;;6.13;2.80;;;;;;;9.75;98.76;100986.88;4934914;29;20043;-75
2023/03/19 01:38:26;;;;;;;5.50;2.92;;;;;;;9.71;99.63;100978.06;4936423;29;20113;-75
2023/03/19 01:40:56;;;;;;;4.45;2.35;;;;;;;9.74;99.02;100987.84;4950376;29;20038;-74
2023/03/19 01:43:24;;;;;;;4.05;2.65;;;;;;;9.76;99.98;100982.31;4950353;29;20443;-75
2023/03/19 01:45:57;;;;;;;4.10;2.80;;;;;;;9.73;100.00;100980.66;4950024;28;20067;-75
2023/03/19 01:49:05;;;;;;;4.85;2.70;;;;;;;9.71;99.28;100969.03;4950595;29;20566;-75
2023/03/19 01:51:37;;;;;;;5.50;2.50;;;;;;;9.69;100.00;100977.28;4952377;28;20450;-75
2023/03/19 01:54:06;;;;;;;3.80;2.67;;;;;;;9.73;99.77;100980.66;4951599;28;20054;-75
2023/03/19 01:57:07;;;;;;;3.47;2.90;;;;;;;9.74;100.00;100984.25;4950650;28;20078;-75
2023/03/19 02:00:03;;;;;;;4.57;2.95;;;;;;;9.75;99.82;100981.44;4950311;29;20105;-75
2023/03/19 02:02:48;;;;;;;3.45;2.97;;;;;;;9.75;100.00;100975.16;4951318;28;20110;-76
2023/03/19 02:05:39;;;;;;;4.90;3.40;;;;;;;9.77;100.00;100978.63;4945626;29;20518;-74
2023/03/19 02:08:12;;;;;;;4.70;3.40;;;;;;;9.78;100.00;100980.34;4949668;28;20054;-75
2023/03/19 02:10:39;;;;;;;6.63;2.88;;;;;;;9.77;100.00;100979.47;4950045;29;20078;-74
2023/03/19 02:13:05;;;;;;;6.25;3.22;;;;;;;9.78;100.00;100978.50;4951050;29;20035;-75
2023/03/19 02:15:32;;;;;;;4.68;3.40;;;;;;;9.78;100.00;100980.34;4951335;28;20336;-75
2023/03/19 02:17:57;;;;;;;3.75;3.08;;;;;;;9.74;100.00;100974.25;4949177;29;20126;-75
2023/03/19 02:20:31;;;;;;;4.15;3.00;;;;;;;9.78;100.00;100977.63;4950847;28;20114;-75
2023/03/19 02:23:34;;;;;;;4.70;3.17;;;;;;;9.77;100.00;100979.47;4934058;28;20039;-76
2023/03/19 02:26:12;;;;;;;6.50;3.67;;;;;;;9.76;100.00;100980.47;4949812;29;20035;-75
2023/03/19 02:28:42;;;;;;;5.88;3.63;;;;;;;9.73;100.00;100980.66;4949706;29;20504;-75
2023/03/19 02:31:10;;;;;;;5.57;3.03;;;;;;;9.67;100.00;100973.81;4948981;28;20031;-74
2023/03/19 02:33:35;;;;;;;4.63;3.30;;;;;;;9.69;100.00;100976.41;4949955;29;20042;-75
2023/03/19 02:36:04;;;;;;;6.68;3.58;;;;;;;9.68;100.00;100980.09;4949777;28;20410;-75
2023/03/19 02:38:32;;;;;;;4.35;3.70;;;;;;;9.69;100.00;100990.00;4949180;28;20026;-75
2023/03/19 02:41:06;;;;;;;6.25;3.55;;;;;;;9.71;100.00;100985.34;4949760;29;20031;-75
2023/03/19 02:43:34;;;;;;;7.18;4.05;;;;;;;9.73;100.00;100987.94;4950846;29;20047;-75
2023/03/19 02:46:01;;;;;;;7.55;4.45;;;;;;;9.74;100.00;100986.97;4949352;28;20039;-74
2023/03/19 02:48:27;;;;;;;6.05;3.70;;;;;;;9.75;100.00;100992.31;4934020;29;20032;-75
2023/03/19 02:50:53;;;;;;;7.85;4.25;;;;;;;9.74;100.00;100987.84;4950593;29;20404;-75
2023/03/19 02:53:19;;;;;;;5.45;3.70;;;;;;;9.75;100.00;100994.16;4934314;29;20035;-75
2023/03/19 02:55:44;;;;;;;7.60;4.40;;;;;;;9.74;100.00;100998.69;4933533;29;20041;-75
2023/03/19 02:58:10;;;;;;;8.18;4.22;;;;;;;9.71;100.00;100996.22;4933135;29;20031;-75
2023/03/19 03:00:36;;;;;;;5.88;4.30;;;;;;;9.73;100.00;101001.53;4949211;29;20047;-74
2023/03/19 03:03:03;;;;;;;4.75;3.55;;;;;;;9.71;100.00;100997.06;4949216;28;20398;-75
2023/03/19 03:05:28;;;;;;;6.53;3.83;;;;;;;9.70;100.00;101002.63;4949786;28;20098;-75
2023/03/19 03:07:54;;;;;;;8.48;4.15;;;;;;;9.69;100.00;101000.84;4950143;28;20047;-74
2023/03/19 03:10:19;;;;;;;5.82;4.70;;;;;;;9.69;100.00;101006.28;4949334;29;20486;-74
2023/03/19 03:12:45;;;;;;;6.70;4.03;;;;;;;9.68;100.00;100996.41;4949687;29;20466;-74
2023/03/19 03:15:11;;;;;;;4.72;3.80;;;;;;;9.69;100.00;101000.84;4950239;28;20086;-75
2023/03/19 03:17:38;;;;;;;9.32;5.15;;;;;;;9.68;100.00;101002.69;4949967;28;20499;-74
2023/03/19 03:20:05;;;;;;;7.63;5.05;;;;;;;9.66;100.00;100998.34;4950653;29;20169;-75
2023/03/19 03:22:31;;;;;;;7.38;4.53;;;;;;;9.68;100.00;101001.84;4933654;29;20043;-75
2023/03/19 03:24:57;;;;;;;8.60;4.85;;;;;;;9.63;100.00;100996.69;4950225;28;20035;-75
2023/03/19 03:27:23;;;;;;;6.18;4.50;;;;;;;9.60;100.00;100998.75;4952246;28;20085;-75
2023/03/19 03:29:49;;;;;;;9.38;4.80;;;;;;;9.58;100.00;101003.41;4955406;28;20035;-75
2023/03/19 03:32:15;;;;;;;8.90;5.53;;;;;;;9.54;100.00;100996.44;4950008;28;20451;-74
2023/03/19 03:34:41;;;;;;;8.15;4.70;;;;;;;9.50;100.00;100995.75;4949086;29;20047;-74
2023/03/19 03:37:06;;;;;;;7.22;4.80;;;;;;;9.49;100.00;100998.59;4948687;28;20046;-75
2023/03/19 03:39:32;;;;;;;6.60;4.60;;;;;;;9.46;100.00;101002.38;4961991;28;20129;-75
2023/03/19 03:41:57;;;;;;;9.00;4.97;;;;;;;9.40;100.00;101003.63;4952343;28;20116;-75
2023/03/19 03:44:23;;;;;;;7.85;5.40;;;;;;;9.36;100.00;100999.38;4932016;29;20034;-75
2023/03/19 03:46:48;;;;;;;8.18;4.65;;;;;;;9.26;100.00;101000.94;4949815;28;20047;-74
2023/03/19 03:49:14;;;;;;;9.38;5.15;;;;;;;9.22;100.00;101007.53;4948974;29;20036;-75
2023/03/19 03:51:40;;;;;;;7.50;5.40;;;;;;;9.14;100.00;100997.19;4950454;28;20043;-75
2023/03/19 03:54:06;;;;;;;8.40;5.15;;;;;;;9.06;100.00;101004.94;4952324;28;20142;-76
2023/03/19 03:56:32;;;;;;;6.25;4.85;;;;;;;8.95;100.00;100996.59;4936611;29;20380;-75
2023/03/19 03:58:57;;;;;;;6.53;5.10;;;;;;;8.94;100.00;101014.72;4952744;28;20082;-75
2023/03/19 04:01:23;;;;;;;7.80;5.18;;;;;;;8.88;100.00;101014.25;4937874;29;20136;-76
2023/03/19 04:03:53;;;;;;;7.80;4.95;;;;;;;8.81;100.00;101021.00;4949631;29;20518;-76
2023/03/19 04:06:21;;;;;;;7.63;4.90;;;;;;;8.78;100.00;101021.22;4936117;29;20039;-76
2023/03/19 04:09:02;;;;;;;9.02;5.32;;;;;;;8.76;100.00;101023.16;4952382;28;20040;-76
2023/03/19 04:11:28;;;;;;;7.55;5.32;;;;;;;8.71;100.00;101009.00;4951012;29;20039;-76
2023/03/19 04:13:56;;;;;;;9.07;5.13;;;;;;;8.67;100.00;101011.91;4952053;29;20376;-76
2023/03/19 04:16:23;;;;;;;5.55;5.03;;;;;;;8.64;100.00;101016.66;4951531;28;20338;-76
2023/03/19 04:18:49;;;;;;;8.30;4.70;;;;;;;8.59;100.00;101014.22;4952067;29;20031;-76
2023/03/19 04:21:14;;;;;;;7.65;4.82;;;;;;;8.55;100.00;101017.22;4953014;29;20035;-76
2023/03/19 04:23:40;;;;;;;8.05;5.65;;;;;;;8.51;100.00;101012.94;4945645;29;20082;-76
2023/03/19 04:26:06;;;;;;;7.25;5.15;;;;;;;8.45;100.00;101010.63;4951775;29;20118;-75
2023/03/19 04:28:32;;;;;;;8.60;5.20;;;;;;;8.42;100.00;101031.50;4935736;29;20019;-76
2023/03/19 04:31:00;;;;;;;8.15;5.25;;;;;;;8.34;100.00;101025.63;4953049;28;20035;-76
2023/03/19 04:33:25;;;;;;;12.88;5.80;;;;;;;8.30;100.00;101020.50;4951785;29;20090;-75
2023/03/19 04:35:51;;;;;;;6.93;5.00;;;;;;;8.25;100.00;101015.34;4953141;29;20724;-75
2023/03/19 04:38:17;;;;;;;11.52;5.63;;;;;;;8.22;100.00;101017.41;4951301;28;20027;-74
2023/03/19 04:40:42;;;;;;;9.35;5.60;;;;;;;8.19;100.00;101019.31;4950464;28;20069;-75
2023/03/19 04:43:08;;;;;;;10.55;5.47;;;;;;;8.17;100.00;101021.25;4950988;29;20051;-75
2023/03/19 04:45:34;;;;;;;11.15;5.78;;;;;;;8.14;100.00;101020.56;4950441;29;20118;-76
2023/03/19 04:48:00;;;;;;;8.05;5.50;;;;;;;8.12;100.00;101022.50;4950156;29;20067;-76
2023/03/19 04:50:26;;;;;;;7.82;5.50;;;;;;;8.07;100.00;101020.06;4951133;29;20050;-75
2023/03/19 04:52:52;;;;;;;9.57;5.70;;;;;;;8.06;100.00;101020.13;4950928;28;20035;-76
2023/03/19 04:55:18;;;;;;;9.65;5.30;;;;;;;8.03;100.00;101023.91;4951267;29;20546;-76
2023/03/19 04:57:59;;;;;;;10.05;5.57;;;;;;;7.98;100.00;101025.16;4951718;28;20146;-76
2023/03/19 05:00:29;;;;;;;9.90;5.32;;;;;;;7.96;100.00;101024.34;4950986;28;20043;-75
2023/03/19 05:02:55;;;;;;;9.15;6.25;;;;;;;7.92;100.00;101026.34;4950504;28;20483;-75
2023/03/19 05:05:20;;;;;;;8.45;6.15;;;;;;;7.87;100.00;101037.47;4968074;28;20062;-75
2023/03/19 05:07:46;;;;;;;9.30;5.97;;;;;;;7.86;100.00;101040.25;4954105;28;20470;-74
2023/03/19 05:10:12;;;;;;;9.05;5.95;;;;;;;7.80;100.00;101048.75;4934940;29;20090;-75
2023/03/19 05:12:38;;;;;;;11.57;6.20;;;;;;;7.76;100.00;101044.47;4950867;29;20075;-74
2023/03/19 05:15:05;;;;;;;10.10;5.90;;;;;;;7.70;100.00;101042.13;4950494;28;20035;-75
2023/03/19 05:17:56;;;;;;;11.00;5.35;;;;;;;7.66;100.00;101046.84;4948983;28;20046;-75
2023/03/19 05:20:28;;;;;;;10.18;5.95;;;;;;;7.63;100.00;101047.88;4951018;29;20042;-75
2023/03/19 05:23:00;;;;;;;8.43;5.70;;;;;;;7.57;100.00;101048.22;4950804;28;20518;-75
2023/03/19 05:25:41;;;;;;;9.02;6.45;;;;;;;7.54;100.00;101056.50;4949545;29;20118;-76
2023/03/19 05:28:09;;;;;;;7.72;5.93;;;;;;;7.53;100.00;101053.91;4951883;29;20487;-75
2023/03/19 05:30:35;;;;;;;9.85;6.35;;;;;;;7.50;100.00;101059.47;4951938;29;20035;-75
2023/03/19 05:33:08;;;;;;;8.70;5.93;;;;;;;7.47;100.00;101056.97;4950338;28;20045;-75
2023/03/19 05:35:37;;;;;;;9.50;5.70;;;;;;;7.43;100.00;101064.38;4950299;28;20035;-75
2023/03/19 05:38:07;;;;;;;10.13;6.15;;;;;;;7.46;100.00;101066.03;4950541;28;20038;-75
2023/03/19 05:40:34;;;;;;;11.45;7.20;;;;;;;7.48;100.00;101062.28;4950338;29;20448;-75
2023/03/19 05:43:09;;;;;;;8.13;5.63;;;;;;;7.47;100.00;101067.78;4950012;28;20045;-75
2023/03/19 05:45:35;;;;;;;9.35;5.85;;;;;;;7.44;100.00;101066.13;4950345;29;20495;-75
2023/03/19 05:48:09;;;;;;;8.02;5.90;;;;;;;7.40;100.00;101068.13;4948824;29;20042;-74
2023/03/19 05:50:38;;;;;;;8.98;5.68;;;;;;;7.40;100.00;101070.81;4950184;29;20194;-74
2023/03/19 05:53:15;;;;;;;9.35;5.57;;;;;;;7.39;100.00;101076.34;4950048;28;20356;-75
2023/03/19 05:55:49;;;;;;;11.18;6.43;;;;;;;7.34;100.00;101076.59;4949078;29;20035;-75
2023/03/19 05:58:16;;;;;;;8.35;5.30;;;;;;;7.34;100.00;101078.41;4949992;28;20027;-76
2023/03/19 06:00:44;;;;;;;10.90;6.80;;;;;;;7.32;100.00;101080.31;4949666;29;20519;-75
2023/03/19 06:03:09;;;;;;;16.23;6.63;;;;;;;7.29;100.00;101077.81;4951098;28;20050;-75
2023/03/19 06:05:43;;;;;;;10.25;6.63;;;;;;;7.26;100.00;101078.84;4949982;29;20035;-76
2023/03/19 06:08:29;;;;;;;11.18;7.32;;;;;;;7.27;100.00;101088.69;4950011;28;20038;-76
2023/03/19 06:11:03;;;;;;;14.32;8.27;;;;;;;7.27;100.00;101095.94;4959705;28;20078;-75
2023/03/19 06:13:29;;;;;;;13.82;8.45;;;;;;;7.28;100.00;101095.00;4952374;28;20058;-75
2023/03/19 06:15:57;;;;;;;10.65;7.90;;;;;;;7.23;100.00;101095.25;4958238;28;20034;-76
2023/03/19 06:18:28;;;;;;;11.63;7.28;;;;;;;7.24;100.00;101102.41;4934506;29;20443;-76
2023/03/19 06:20:54;;;;;;;13.38;7.88;;;;;;;7.22;100.00;101098.91;4950016;28;20031;-75
2023/03/19 06:23:19;;;;;;;11.05;6.63;;;;;;;7.21;100.00;101102.56;4948822;29;20039;-76
2023/03/19 06:25:45;;;;;;;9.75;7.00;;;;;;;7.22;100.00;101108.84;4939031;29;20463;-75
2023/03/19 06:28:11;;;;;;;9.75;6.78;;;;;;;7.22;100.00;101109.72;4949710;29;20126;-75
2023/03/19 06:30:40;;;;;;;12.70;7.80;;;;;;;7.24;100.00;101104.25;4949614;29;20047;-76
2023/03/19 06:33:30;;;;;;;11.85;7.22;;;;;;;7.24;100.00;101113.22;4951259;28;20075;-75
2023/03/19 06:35:57;;;;;;;14.13;8.57;;;;;;;7.23;100.00;101122.31;4939490;29;20528;-76
2023/03/19 06:38:22;;;;;;;13.55;8.27;;;;;;;7.26;100.00;101121.25;4948486;29;20031;-76
2023/03/19 06:40:48;;;;;;;12.52;8.48;;;;;;;7.28;100.00;101117.53;4950878;29;20046;-76
2023/03/19 06:43:13;;;;;;;11.45;7.55;;;;;;;7.29;100.00;101119.25;4949207;29;20053;-76
2023/03/19 06:45:38;;;;;;;15.13;8.45;;;;;;;7.31;100.00;101125.47;4950696;28;20102;-75
2023/03/19 06:48:04;;;;;;;13.85;9.57;;;;;;;7.34;100.00;101128.00;4947132;29;20023;-75
2023/03/19 06:50:30;;;;;;;15.00;10.32;;;;;;;7.34;100.00;101129.84;4933597;29;20039;-75
2023/03/19 06:52:55;;;;;;;12.55;8.20;;;;;;;7.42;100.00;101138.44;4949480;28;20603;-76
2023/03/19 06:55:21;;;;;;;13.30;8.10;;;;;;;7.44;100.00;101141.03;4968427;28;20046;-76
2023/03/19 06:57:50;;;;;;;12.82;8.88;;;;;;;7.49;100.00;101141.66;4952493;28;20027;-76
2023/03/19 07:00:17;;;;;;;13.23;9.00;;;;;;;7.56;100.00;101133.13;4968363;28;20054;-75
2023/03/19 07:02:42;;;;;;;16.10;9.38;;;;;;;8.10;100.00;101133.66;4949180;28;20039;-75
2023/03/19 07:05:08;;;;;;;16.08;9.45;;;;;;;8.63;100.00;101135.13;4950673;28;20031;-75
2023/03/19 07:07:33;;;;;;;13.88;9.45;;;;;;;8.98;100.00;101128.50;4949924;28;20036;-76
2023/03/19 07:09:59;;;;;;;11.65;7.68;;;;;;;9.27;100.00;101145.72;4949490;28;20550;-75
2023/03/19 07:12:26;;;;;;;12.30;8.05;;;;;;;9.67;100.00;101150.38;4933421;29;20058;-74
2023/03/19 07:14:54;;;;;;;12.55;7.43;;;;;;;10.20;100.00;101153.28;4950592;29;20039;-75
2023/03/19 07:17:21;;;;;;;11.43;7.63;;;;;;;10.87;97.93;101154.25;4949760;28;20031;-75
2023/03/19 07:19:46;;;;;;;12.98;7.97;;;;;;;11.58;93.79;101154.72;4957190;28;20031;-75
2023/03/19 07:22:11;;;;;;;10.32;6.80;;;;;;;12.10;92.38;101151.81;4966214;28;20045;-76
2023/03/19 07:24:37;;;;;;;13.02;7.70;;;;;;;12.51;89.02;101158.78;4948602;28;20038;-76
2023/03/19 07:27:02;;;;;;;9.85;6.35;;;;;;;12.99;86.92;101156.88;4971078;28;20046;-75
2023/03/19 07:29:28;;;;;;;8.90;6.38;;;;;;;12.93;85.40;101164.69;4964488;28;20058;-75
2023/03/19 07:31:53;;;;;;;9.70;6.97;;;;;;;13.24;85.05;101166.81;4952115;28;20372;-75
2023/03/19 07:34:18;;;;;;;8.57;6.15;;;;;;;13.42;84.14;101179.97;4957148;28;20101;-76
2023/03/19 07:36:44;;;;;;;8.98;6.30;;;;;;;13.52;83.44;101176.41;4966564;28;20047;-75
2023/03/19 07:39:09;;;;;;;7.50;6.03;;;;;;;13.73;82.43;101172.94;4953995;28;20057;-75
2023/03/19 07:41:35;;;;;;;11.10;7.18;;;;;;;14.21;81.11;101181.75;4954180;28;20039;-75
2023/03/19 07:44:00;;;;;;;9.52;6.43;;;;;;;14.35;78.98;101183.34;4973642;28;20034;-76
2023/03/19 07:46:27;;;;;;;8.65;5.93;;;;;;;14.23;79.94;101185.25;4950575;29;20401;-75
2023/03/19 07:48:52;;;;;;;8.63;5.93;;;;;;;13.69;80.87;101172.31;4936489;29;20051;-75
2023/03/19 07:51:18;;;;;;;11.15;6.35;;;;;;;13.14;83.38;101178.50;4936392;29;20102;-75
2023/03/19 07:53:43;;;;;;;9.65;7.20;;;;;;;12.69;84.86;101189.28;4936899;29;20075;-75
2023/03/19 07:56:08;;;;;;;10.02;6.68;;;;;;;12.48;87.71;101192.63;4953722;29;20121;-75
2023/03/19 07:58:34;;;;;;;10.23;6.82;;;;;;;12.18;88.04;101193.06;4975399;28;20169;-75
2023/03/19 08:00:59;;;;;;;13.10;7.25;;;;;;;11.95;89.19;101189.28;4951432;28;20075;-75
2023/03/19 08:03:25;;;;;;;13.27;7.43;;;;;;;11.75;90.34;101184.38;4955539;28;20550;-76
2023/03/19 08:05:51;;;;;;;14.68;7.07;;;;;;;11.66;89.86;101195.94;4972642;28;20458;-75
2023/03/19 08:08:16;;;;;;;13.75;7.07;;;;;;;11.58;90.91;101191.03;4969134;28;20078;-75
2023/03/19 08:10:42;;;;;;;12.13;7.07;;;;;;;11.42;90.10;101193.06;4971037;28;20114;-75
2023/03/19 08:13:07;;;;;;;12.15;6.53;;;;;;;11.29;89.88;101198.53;4955021;28;20026;-75
2023/03/19 08:15:33;;;;;;;13.57;5.88;;;;;;;11.09;90.68;101196.31;4958270;28;20063;-75
2023/03/19 08:18:00;;;;;;;15.40;6.50;;;;;;;11.05;91.45;101202.94;4953476;28;20027;-75
2023/03/19 08:20:25;;;;;;;9.93;5.63;;;;;;;11.15;91.43;101195.91;4963034;28;20118;-74
2023/03/19 08:22:51;;;;;;;11.77;6.10;;;;;;;11.17;91.12;101197.53;4970397;28;20362;-75
2023/03/19 08:25:17;;;;;;;9.60;5.30;;;;;;;11.20;90.88;101201.91;4971340;28;20402;-75
2023/03/19 08:27:42;;;;;;;6.97;4.72;;;;;;;11.40;93.17;101205.94;4957555;28;20483;-75
2023/03/19 08:30:09;;;;;;;9.90;5.18;;;;;;;11.47;90.18;101210.88;4951819;29;20552;-75
2023/03/19 08:32:35;;;;;;;13.45;5.95;;;;;;;11.56;90.19;101220.22;4951387;28;20031;-74
2023/03/19 08:35:01;;;;;;;12.80;5.68;;;;;;;11.56;90.04;101208.44;4951910;29;20043;-75
2023/03/19 08:37:27;;;;;;;17.67;6.75;;;;;;;11.74;90.61;101215.31;4951302;28;20041;-75
2023/03/19 08:39:52;;;;;;;12.77;4.90;;;;;;;11.72;89.90;101209.13;4956578;28;20065;-75
2023/03/19 08:42:19;;;;;;;15.55;4.45;;;;;;;11.75;88.73;101214.34;4971237;28;20510;-76
2023/03/19 08:44:44;;;;;;;11.13;5.07;;;;;;;11.77;89.25;101212.38;4950077;29;20034;-74
2023/03/19 08:47:11;;;;;;;13.20;5.95;;;;;;;11.93;89.74;101221.22;4962692;28;20038;-75
2023/03/19 08:49:36;;;;;;;10.55;5.50;;;;;;;12.20;89.43;101229.25;4970931;28;20045;-75
2023/03/19 08:52:03;;;;;;;19.50;5.70;;;;;;;12.36;89.02;101222.69;4971241;28;20034;-75
2023/03/19 08:54:28;;;;;;;12.48;5.57;;;;;;;12.59;89.10;101224.59;4950280;29;20043;-75
2023/03/19 08:56:53;;;;;;;14.02;5.68;;;;;;;12.81;87.06;101226.53;4952516;28;20503;-75
2023/03/19 08:59:19;;;;;;;15.38;6.15;;;;;;;12.76;84.93;101231.50;4963438;28;20399;-75
2023/03/19 09:01:44;;;;;;;12.25;5.78;;;;;;;12.68;85.10;101244.84;4964086;28;20043;-75
2023/03/19 09:04:10;;;;;;;15.85;6.82;;;;;;;12.57;85.11;101242.91;4952307;28;20372;-75
2023/03/19 09:06:35;;;;;;;16.58;7.13;;;;;;;12.49;85.73;101242.59;4952241;29;20045;-75
2023/03/19 09:09:00;;;;;;;15.52;7.00;;;;;;;12.39;86.33;101241.53;4939726;29;20043;-75
2023/03/19 09:11:26;;;;;;;12.50;6.35;;;;;;;12.35;86.22;101240.91;4952436;29;20031;-75
2023/03/19 09:13:51;;;;;;;19.27;7.50;;;;;;;12.42;86.21;101247.66;4952170;29;20480;-74
2023/03/19 09:16:17;;;;;;;21.38;7.45;;;;;;;12.51;86.87;101249.72;4951805;28;20052;-75
2023/03/19 09:18:42;;;;;;;11.80;6.35;;;;;;;12.66;85.76;101249.56;4952267;29;20046;-74
2023/03/19 09:21:08;;;;;;;11.77;6.68;;;;;;;12.81;85.91;101251.13;4935026;28;20034;-75
2023/03/19 09:23:34;;;;;;;13.93;6.25;;;;;;;12.86;84.70;101251.63;4950507;28;20033;-75
2023/03/19 09:25:59;;;;;;;15.68;6.07;;;;;;;12.94;85.41;101257.41;4952045;28;20042;-75
2023/03/19 09:28:25;;;;;;;12.70;5.93;;;;;;;13.01;83.89;101255.97;4934676;29;20035;-74
2023/03/19 09:30:50;;;;;;;11.48;5.57;;;;;;;12.99;83.92;101259.78;4951986;28;20040;-74
2023/03/19 09:33:18;;;;;;;11.93;5.50;;;;;;;12.99;83.06;101263.38;4951532;28;20501;-74
2023/03/19 09:35:49;;;;;;;14.90;6.15;;;;;;;12.80;81.59;101267.63;4951490;28;20396;-75
2023/03/19 09:38:15;;;;;;;17.88;6.13;;;;;;;12.63;82.52;101268.88;4949079;28;20035;-75
2023/03/19 09:40:44;;;;;;;14.25;6.50;;;;;;;12.54;82.79;101273.16;4950146;29;20519;-74
2023/03/19 09:43:41;;;;;;;15.18;6.00;;;;;;;12.51;84.45;101282.47;4950240;29;20490;-74
2023/03/19 09:46:17;;;;;;;20.42;7.20;;;;;;;12.50;83.99;101282.59;4950903;28;20050;-75
2023/03/19 09:48:50;;;;;;;15.50;7.07;;;;;;;12.54;84.38;101277.75;4951784;28;20066;-75
2023/03/19 09:51:29;;;;;;;14.77;7.60;;;;;;;12.68;84.17;101283.06;4951528;29;20039;-74
2023/03/19 09:54:03;;;;;;;17.02;8.23;;;;;;;12.57;83.30;101286.59;4950952;28;20506;-75
2023/03/19 09:56:31;;;;;;;16.10;8.05;;;;;;;12.46;83.19;101284.66;4950510;29;20042;-74
2023/03/19 09:58:57;;;;;;;17.65;8.88;;;;;;;12.53;85.69;101282.34;4948945;28;20027;-74
2023/03/19 10:01:32;;;;;;;17.98;9.07;;;;;;;12.74;86.62;101280.75;4950707;28;20109;-75
2023/03/19 10:04:15;;;;;;;18.77;8.68;;;;;;;13.14;86.39;101287.78;4951666;28;20039;-74
2023/03/19 10:06:42;;;;;;;20.15;11.40;;;;;;;13.48;87.01;101288.84;4949762;28;20054;-75
2023/03/19 10:09:24;;;;;;;17.40;9.38;;;;;;;13.88;85.34;101282.97;4949738;28;20061;-75
2023/03/19 10:11:56;;;;;;;15.15;8.25;;;;;;;13.99;82.09;101288.47;4949672;28;20043;-75
2023/03/19 10:14:45;;;;;;;19.53;9.07;;;;;;;14.10;81.02;101288.47;4951413;29;20223;-75
2023/03/19 10:17:17;;;;;;;14.18;8.50;;;;;;;14.14;80.86;101284.50;4950798;28;20051;-75
2023/03/19 10:19:49;;;;;;;15.98;7.57;;;;;;;14.23;79.85;101282.91;4949924;29;20070;-75
2023/03/19 10:22:20;;;;;;;16.83;6.40;;;;;;;14.26;78.85;101288.97;4950952;29;20050;-75
2023/03/19 10:24:49;;;;;;;16.30;7.20;;;;;;;14.35;81.00;101290.09;4951179;28;20039;-74
2023/03/19 10:27:18;;;;;;;14.50;6.18;;;;;;;14.65;79.70;101294.97;4950811;29;20110;-74
2023/03/19 10:29:44;;;;;;;12.25;5.80;;;;;;;14.82;78.56;101295.44;4935982;29;20081;-74
2023/03/19 10:32:28;;;;;;;14.75;5.15;;;;;;;15.02;79.73;101298.25;4950343;28;20110;-74
2023/03/19 10:34:57;;;;;;;12.77;4.20;;;;;;;15.13;75.51;101293.75;4951005;29;20516;-74
2023/03/19 10:37:25;;;;;;;12.85;4.03;;;;;;;15.14;75.21;101295.47;4950365;28;20138;-74
2023/03/19 10:39:55;;;;;;;12.23;4.57;;;;;;;15.10;74.37;101296.72;4950672;28;20074;-75
2023/03/19 10:42:40;;;;;;;9.43;4.75;;;;;;;15.12;76.51;101297.50;4949273;29;20043;-75
2023/03/19 10:45:25;;;;;;;11.15;3.88;;;;;;;15.02;76.21;101297.41;4950494;28;20071;-74
2023/03/19 10:47:51;;;;;;;13.15;4.10;;;;;;;15.03;76.37;101296.38;4950395;28;20047;-75
2023/03/19 10:50:27;;;;;;;10.80;4.20;;;;;;;15.35;76.20;101303.75;4950618;29;20067;-75
2023/03/19 10:53:03;;;;;;;13.00;4.22;;;;;;;15.63;75.99;101305.88;4950792;29;20126;-75
2023/03/19 10:55:29;;;;;;;8.25;4.10;;;;;;;15.90;75.26;101304.50;4970325;28;20483;-74
2023/03/19 10:58:26;;;;;;;13.07;4.97;;;;;;;16.02;75.94;101311.66;4970085;28;20498;-75
2023/03/19 11:01:07;;;;;;;10.38;4.15;;;;;;;16.04;73.25;101306.88;4931536;28;20214;-74
2023/03/19 11:03:39;;;;;;;10.63;4.50;;;;;;;16.07;73.46;101323.09;4956155;28;20035;-75
2023/03/19 11:06:06;;;;;;;12.10;5.95;;;;;;;16.09;72.81;101312.88;4963839;28;20129;-75
2023/03/19 11:08:36;;;;;;;10.38;5.35;;;;;;;16.01;72.65;101305.31;4954404;28;20046;-74
2023/03/19 11:11:02;;;;;;;11.80;5.85;;;;;;;16.05;72.17;101317.75;4937272;29;20047;-74
2023/03/19 11:13:28;;;;;;;12.27;6.35;;;;;;;16.10;73.80;101311.84;4937396;28;20113;-75
2023/03/19 11:15:57;;;;;;;13.90;6.68;;;;;;;16.09;72.84;101315.63;4954439;29;20117;-75
2023/03/19 11:18:28;;;;;;;11.63;6.63;;;;;;;16.30;73.31;101316.44;4952226;29;20416;-75
2023/03/19 11:21:00;;;;;;;14.85;6.60;;;;;;;16.27;70.62;101316.72;4954450;29;20039;-75
2023/03/19 11:23:36;;;;;;;14.95;8.18;;;;;;;16.24;69.70;101311.50;4952862;28;20046;-75
2023/03/19 11:26:02;;;;;;;16.35;8.82;;;;;;;16.16;70.96;101316.78;4954420;29;20611;-74
2023/03/19 11:28:32;;;;;;;13.50;6.78;;;;;;;16.05;71.19;101315.00;4951907;29;20130;-75